WetterOnline ( https://www.wetteronline.ch )

Wetter aktuell Straubing

Aktuelles Wetter: Straubing (360m)

6-stündlich | Neueste Meldungen
Ortszeit Temperatur Wetter
Di, 11.08. 20:00 24.1° C wolkig
Di, 11.08. 14:00 29.2° C wolkenlos
Di, 11.08. 8:00 19.7° C leicht bewölkt
Di, 11.08. 2:00 20.0° C wolkenlos
Mo, 10.08. 20:00 26.4° C leicht bewölkt
Mo, 10.08. 14:00 30.2° C fast wolkenlos
Mo, 10.08. 8:00 19.6° C fast wolkenlos
Mo, 10.08. 2:00 17.8° C wolkenlos
Ortszeit Temperatur Wetter
Mi, 12.08. 1:30 18.7° C wolkig
Mi, 12.08. 1:20 18.7° C wolkig
Mi, 12.08. 1:10 18.6° C leicht bewölkt
Mi, 12.08. 1:00 20.7° C wolkig
Mi, 12.08. 0:50 20.7° C wolkig
Mi, 12.08. 0:40 20.0° C bedeckt
Mi, 12.08. 0:30 19.8° C bedeckt
Mi, 12.08. 0:00 20.1° C bedeckt
Di, 11.08. 23:30 20.6° C bedeckt
Di, 11.08. 23:00 22.2° C bedeckt
Di, 11.08. 22:30 21.9° C bedeckt
Ortszeit Relative Feuchte Sichtweite
Di, 11.08. 20:00 68% 35 km
Di, 11.08. 14:00 48% 60 km
Di, 11.08. 8:00 82% 27 km
Di, 11.08. 2:00 81% 30 km
Mo, 10.08. 20:00 57% 45 km
Mo, 10.08. 14:00 42% 35 km
Mo, 10.08. 8:00 84% 16 km
Mo, 10.08. 2:00 86% 25 km
Ortszeit Relative Feuchte Sichtweite
Mi, 12.08. 1:30 81% 45 km
Mi, 12.08. 1:20 81% -
Mi, 12.08. 1:10 81% -
Mi, 12.08. 1:00 73% 45 km
Mi, 12.08. 0:50 73% -
Mi, 12.08. 0:40 77% -
Mi, 12.08. 0:30 79% 40 km
Mi, 12.08. 0:00 79% 35 km
Di, 11.08. 23:30 76% 45 km
Di, 11.08. 23:00 67% 50 km
Di, 11.08. 22:30 66% 50 km
Ortszeit Niederschlagsmenge Niederschlagsart
Di, 11.08. 20:00 0.0 l/m2 in 12 Std. -
Di, 11.08. 14:00 0.0 l/m2 in 6 Std. -
Di, 11.08. 8:00 0.0 l/m2 in 12 Std. -
Di, 11.08. 2:00 0.0 l/m2 in 6 Std. -
Mo, 10.08. 20:00 0.0 l/m2 in 12 Std. -
Mo, 10.08. 14:00 0.0 l/m2 in 6 Std. -
Mo, 10.08. 8:00 0.0 l/m2 in 12 Std. -
Mo, 10.08. 2:00 0.0 l/m2 in 6 Std. -
Ortszeit Niederschlagsmenge Niederschlagsart
Mi, 12.08. 1:30 0.0 l/m2 in 1 Std. -
Mi, 12.08. 1:20 keine Meldung -
Mi, 12.08. 1:10 keine Meldung -
Mi, 12.08. 1:00 0.0 l/m2 in 1 Std. -
Mi, 12.08. 0:50 keine Meldung -
Mi, 12.08. 0:40 keine Meldung -
Mi, 12.08. 0:30 0.0 l/m2 in 1 Std. -
Mi, 12.08. 0:00 0.0 l/m2 in 1 Std. -
Di, 11.08. 23:30 0.0 l/m2 in 1 Std. -
Di, 11.08. 23:00 0.0 l/m2 in 1 Std. -
Di, 11.08. 22:30 0.0 l/m2 in 1 Std. -
Ortszeit Stärke Spitze Richtung
km/h Bft. km/h Grad Sektor
Di, 11.08. 20:00 24 4 43 80° O
Di, 11.08. 14:00 7 2 28 130° SO
Di, 11.08. 8:00 4 1 7 240° SW
Di, 11.08. 2:00 4 1 25 340° N
Mo, 10.08. 20:00 15 3 28 20° N
Mo, 10.08. 14:00 17 3 30 140° SO
Mo, 10.08. 8:00 4 1 11 200° S
Mo, 10.08. 2:00 0 0 11 - -
Ortszeit Stärke Spitze Richtung
km/h Bft. km/h Grad Sektor
Mi, 12.08. 1:30 4 1 4 230° SW
Mi, 12.08. 1:20 4 1 - 230° SW
Mi, 12.08. 1:10 4 1 - 190° S
Mi, 12.08. 1:00 4 1 11 250° W
Mi, 12.08. 0:50 4 1 - 250° W
Mi, 12.08. 0:40 7 2 - 200° S
Mi, 12.08. 0:30 4 1 7 170° S
Mi, 12.08. 0:00 4 1 11 160° S
Di, 11.08. 23:30 4 1 11 70° O
Di, 11.08. 23:00 7 2 11 310° NW
Di, 11.08. 22:30 2 1 7 20° N
Ortszeit Untergrenze Bedeckung Gattung
total tief tief mittel hoch
Di, 11.08. 20:00 8100 m 8/8 0/8 - - -
Di, 11.08. 14:00 - 0/8 0/8 - - -
Di, 11.08. 8:00 9000 m 6/8 0/8 - - -
Di, 11.08. 2:00 - 0/8 0/8 - - -
Mo, 10.08. 20:00 12000 m 4/8 0/8 - - -
Mo, 10.08. 14:00 12000 m 1/8 0/8 - - -
Mo, 10.08. 8:00 10500 m 1/8 0/8 - - -
Mo, 10.08. 2:00 - 0/8 0/8 - - -
Ortszeit Bedeckungsgrad in Achtel und Wolkenuntergrenze
Mi, 12.08. 1:30 6(4500m)
Mi, 12.08. 1:20 6(4500m)
Mi, 12.08. 1:10 4(4500m)
Mi, 12.08. 1:00 6(4500m) 6(10500m)
Mi, 12.08. 0:50 6(4500m) 6(10500m)
Mi, 12.08. 0:40 8(4500m) 8(10500m)
Mi, 12.08. 0:30 1(3600m) 8(4200m) 8(5700m)
Mi, 12.08. 0:00 8(3900m) 8(5700m) 8(10500m)
Di, 11.08. 23:30 8(4200m)
Di, 11.08. 23:00 1(3600m) 8(4500m)
Di, 11.08. 22:30 8(4500m)
Ortszeit Luftdruck NN (hPa) Tendenz (hPa in 3 Std.)
Di, 11.08. 20:00 1016 + 0,2
Di, 11.08. 14:00 1016 - 0,5
Di, 11.08. 8:00 1017 + 0,7
Di, 11.08. 2:00 1016 + 0,4
Mo, 10.08. 20:00 1013 - 0,2
Mo, 10.08. 14:00 1013 - 0,8
Mo, 10.08. 8:00 1016 + 0,2
Mo, 10.08. 2:00 1016 - 0,3
Ortszeit Luftdruck NN (hPa) Tendenz (hPa in 3 Std.)
Mi, 12.08. 1:30 1017 - 0,2
Mi, 12.08. 1:20 1017 keine Meldung
Mi, 12.08. 1:10 1017 keine Meldung
Mi, 12.08. 1:00 1017 + 0,1
Mi, 12.08. 0:50 1017 keine Meldung
Mi, 12.08. 0:40 1017 keine Meldung
Mi, 12.08. 0:30 1017 + 0,3
Mi, 12.08. 0:00 1017 + 0,7
Di, 11.08. 23:30 1017 + 0,8
Di, 11.08. 23:00 1018 + 1,3
Di, 11.08. 22:30 1017 + 1,2
Ortszeit Schneehöhe (cm)
Di, 11.08. 20:00 -
Di, 11.08. 14:00 -
Di, 11.08. 8:00 -
Di, 11.08. 2:00 -
Mo, 10.08. 20:00 -
Mo, 10.08. 14:00 -
Mo, 10.08. 8:00 -
Mo, 10.08. 2:00 -
Ortszeit Schneehöhe (cm)
Mi, 12.08. 1:30 -
Mi, 12.08. 1:20 -
Mi, 12.08. 1:10 -
Mi, 12.08. 1:00 -
Mi, 12.08. 0:50 -
Mi, 12.08. 0:40 -
Mi, 12.08. 0:30 -
Mi, 12.08. 0:00 -
Di, 11.08. 23:30 -
Di, 11.08. 23:00 -
Di, 11.08. 22:30 -
Link zu dieser Seite / Seite empfehlen

Das Wetter in ...